sensor_id;sensor_type;location;lat;lon;timestamp;P1;durP1;ratioP1;P2;durP2;ratioP2
12814;SDS011;6472;52.328;13.070;2023-07-13T00:00:02;3.27;;;2.70;;
12814;SDS011;6472;52.328;13.070;2023-07-13T00:02:34;3.23;;;2.90;;
12814;SDS011;6472;52.328;13.070;2023-07-13T00:05:03;3.87;;;2.90;;
12814;SDS011;6472;52.328;13.070;2023-07-13T00:07:33;3.57;;;2.83;;
12814;SDS011;6472;52.328;13.070;2023-07-13T00:10:01;4.80;;;2.83;;
12814;SDS011;6472;52.328;13.070;2023-07-13T00:12:30;2.50;;;2.27;;
12814;SDS011;6472;52.328;13.070;2023-07-13T00:15:00;3.30;;;2.50;;
12814;SDS011;6472;52.328;13.070;2023-07-13T00:17:31;2.67;;;2.33;;
12814;SDS011;6472;52.328;13.070;2023-07-13T00:19:59;3.70;;;2.63;;
12814;SDS011;6472;52.328;13.070;2023-07-13T00:22:28;3.50;;;3.05;;
12814;SDS011;6472;52.328;13.070;2023-07-13T00:24:56;3.03;;;2.50;;
12814;SDS011;6472;52.328;13.070;2023-07-13T00:27:24;4.72;;;3.00;;
12814;SDS011;6472;52.328;13.070;2023-07-13T00:29:53;4.45;;;2.90;;
12814;SDS011;6472;52.328;13.070;2023-07-13T00:32:21;3.17;;;2.95;;
12814;SDS011;6472;52.328;13.070;2023-07-13T00:34:51;2.73;;;2.50;;
12814;SDS011;6472;52.328;13.070;2023-07-13T00:37:19;4.13;;;3.00;;
12814;SDS011;6472;52.328;13.070;2023-07-13T00:39:49;3.87;;;2.90;;
12814;SDS011;6472;52.328;13.070;2023-07-13T00:42:17;4.20;;;3.10;;
12814;SDS011;6472;52.328;13.070;2023-07-13T00:45:01;3.33;;;3.00;;
12814;SDS011;6472;52.328;13.070;2023-07-13T00:47:33;2.77;;;2.57;;
12814;SDS011;6472;52.328;13.070;2023-07-13T00:50:02;2.95;;;2.50;;
12814;SDS011;6472;52.328;13.070;2023-07-13T00:52:31;2.95;;;2.75;;
12814;SDS011;6472;52.328;13.070;2023-07-13T00:55:04;3.73;;;2.73;;
12814;SDS011;6472;52.328;13.070;2023-07-13T00:57:32;2.70;;;2.50;;
12814;SDS011;6472;52.328;13.070;2023-07-13T01:00:02;3.30;;;2.97;;
12814;SDS011;6472;52.328;13.070;2023-07-13T01:02:35;5.23;;;2.43;;
12814;SDS011;6472;52.328;13.070;2023-07-13T01:05:08;3.63;;;3.07;;
12814;SDS011;6472;52.328;13.070;2023-07-13T01:07:36;5.40;;;3.10;;
12814;SDS011;6472;52.328;13.070;2023-07-13T01:10:07;3.87;;;3.17;;
12814;SDS011;6472;52.328;13.070;2023-07-13T01:12:35;3.67;;;2.60;;
12814;SDS011;6472;52.328;13.070;2023-07-13T01:15:04;3.60;;;3.27;;
12814;SDS011;6472;52.328;13.070;2023-07-13T01:17:33;5.30;;;3.10;;
12814;SDS011;6472;52.328;13.070;2023-07-13T01:20:01;5.53;;;3.07;;
12814;SDS011;6472;52.328;13.070;2023-07-13T01:22:32;3.33;;;3.03;;
12814;SDS011;6472;52.328;13.070;2023-07-13T01:25:00;3.40;;;3.10;;
12814;SDS011;6472;52.328;13.070;2023-07-13T01:27:30;5.50;;;3.70;;
12814;SDS011;6472;52.328;13.070;2023-07-13T01:29:59;5.50;;;4.00;;
12814;SDS011;6472;52.328;13.070;2023-07-13T01:32:30;5.07;;;3.20;;
12814;SDS011;6472;52.328;13.070;2023-07-13T01:34:59;3.87;;;2.70;;
12814;SDS011;6472;52.328;13.070;2023-07-13T01:37:27;3.33;;;3.07;;
12814;SDS011;6472;52.328;13.070;2023-07-13T01:40:04;4.37;;;2.97;;
12814;SDS011;6472;52.328;13.070;2023-07-13T01:42:34;5.77;;;3.30;;
12814;SDS011;6472;52.328;13.070;2023-07-13T01:45:04;5.13;;;3.20;;
12814;SDS011;6472;52.328;13.070;2023-07-13T01:47:32;3.80;;;3.40;;
12814;SDS011;6472;52.328;13.070;2023-07-13T01:50:01;6.10;;;3.30;;
12814;SDS011;6472;52.328;13.070;2023-07-13T01:52:29;3.53;;;3.33;;
12814;SDS011;6472;52.328;13.070;2023-07-13T01:54:57;5.37;;;3.50;;
12814;SDS011;6472;52.328;13.070;2023-07-13T01:57:26;3.87;;;3.33;;
12814;SDS011;6472;52.328;13.070;2023-07-13T01:59:54;3.57;;;3.27;;
12814;SDS011;6472;52.328;13.070;2023-07-13T02:02:22;4.63;;;3.40;;
12814;SDS011;6472;52.328;13.070;2023-07-13T02:04:50;3.43;;;3.13;;
12814;SDS011;6472;52.328;13.070;2023-07-13T02:07:21;3.33;;;2.77;;
12814;SDS011;6472;52.328;13.070;2023-07-13T02:09:50;3.70;;;3.40;;
12814;SDS011;6472;52.328;13.070;2023-07-13T02:12:18;3.37;;;2.93;;
12814;SDS011;6472;52.328;13.070;2023-07-13T02:14:47;3.83;;;3.43;;
12814;SDS011;6472;52.328;13.070;2023-07-13T02:17:15;3.97;;;3.50;;
12814;SDS011;6472;52.328;13.070;2023-07-13T02:19:43;3.73;;;3.37;;
12814;SDS011;6472;52.328;13.070;2023-07-13T02:22:11;3.90;;;3.60;;
12814;SDS011;6472;52.328;13.070;2023-07-13T02:24:39;6.27;;;3.50;;
12814;SDS011;6472;52.328;13.070;2023-07-13T02:27:07;4.03;;;3.63;;
12814;SDS011;6472;52.328;13.070;2023-07-13T02:29:35;4.47;;;3.47;;
12814;SDS011;6472;52.328;13.070;2023-07-13T02:32:05;4.60;;;3.53;;
12814;SDS011;6472;52.328;13.070;2023-07-13T02:34:34;4.30;;;3.23;;
12814;SDS011;6472;52.328;13.070;2023-07-13T02:37:02;4.77;;;3.43;;
12814;SDS011;6472;52.328;13.070;2023-07-13T02:39:30;3.93;;;3.53;;
12814;SDS011;6472;52.328;13.070;2023-07-13T02:41:59;7.03;;;3.83;;
12814;SDS011;6472;52.328;13.070;2023-07-13T02:44:27;4.73;;;3.20;;
12814;SDS011;6472;52.328;13.070;2023-07-13T02:46:55;5.37;;;4.30;;
12814;SDS011;6472;52.328;13.070;2023-07-13T02:49:25;4.10;;;3.80;;
12814;SDS011;6472;52.328;13.070;2023-07-13T02:51:53;4.07;;;3.10;;
12814;SDS011;6472;52.328;13.070;2023-07-13T02:54:21;4.20;;;3.77;;
12814;SDS011;6472;52.328;13.070;2023-07-13T02:56:49;5.07;;;3.80;;
12814;SDS011;6472;52.328;13.070;2023-07-13T02:59:17;3.93;;;3.63;;
12814;SDS011;6472;52.328;13.070;2023-07-13T03:01:45;3.53;;;3.23;;
12814;SDS011;6472;52.328;13.070;2023-07-13T03:04:13;5.50;;;4.00;;
12814;SDS011;6472;52.328;13.070;2023-07-13T03:06:47;4.17;;;3.80;;
12814;SDS011;6472;52.328;13.070;2023-07-13T03:09:15;4.10;;;3.70;;
12814;SDS011;6472;52.328;13.070;2023-07-13T03:11:43;5.53;;;4.17;;
12814;SDS011;6472;52.328;13.070;2023-07-13T03:14:11;7.07;;;3.83;;
12814;SDS011;6472;52.328;13.070;2023-07-13T03:16:39;5.80;;;4.03;;
12814;SDS011;6472;52.328;13.070;2023-07-13T03:19:07;5.93;;;4.17;;
12814;SDS011;6472;52.328;13.070;2023-07-13T03:21:35;3.97;;;3.63;;
12814;SDS011;6472;52.328;13.070;2023-07-13T03:24:05;8.10;;;4.20;;
12814;SDS011;6472;52.328;13.070;2023-07-13T03:26:33;4.80;;;3.70;;
12814;SDS011;6472;52.328;13.070;2023-07-13T03:29:01;3.43;;;3.13;;
12814;SDS011;6472;52.328;13.070;2023-07-13T03:31:32;5.57;;;3.87;;
12814;SDS011;6472;52.328;13.070;2023-07-13T03:34:02;6.43;;;4.20;;
12814;SDS011;6472;52.328;13.070;2023-07-13T03:36:30;6.30;;;3.57;;
12814;SDS011;6472;52.328;13.070;2023-07-13T03:39:00;6.47;;;3.80;;
12814;SDS011;6472;52.328;13.070;2023-07-13T03:41:31;3.83;;;3.53;;
12814;SDS011;6472;52.328;13.070;2023-07-13T03:43:59;4.67;;;4.10;;
12814;SDS011;6472;52.328;13.070;2023-07-13T03:46:27;4.80;;;4.30;;
12814;SDS011;6472;52.328;13.070;2023-07-13T03:48:55;7.73;;;4.20;;
12814;SDS011;6472;52.328;13.070;2023-07-13T03:51:24;4.50;;;4.10;;
12814;SDS011;6472;52.328;13.070;2023-07-13T03:53:52;5.30;;;4.50;;
12814;SDS011;6472;52.328;13.070;2023-07-13T03:56:20;5.67;;;3.80;;
12814;SDS011;6472;52.328;13.070;2023-07-13T03:58:50;4.50;;;3.93;;
12814;SDS011;6472;52.328;13.070;2023-07-13T04:01:18;4.83;;;4.20;;
12814;SDS011;6472;52.328;13.070;2023-07-13T04:03:48;5.73;;;4.00;;
12814;SDS011;6472;52.328;13.070;2023-07-13T04:06:16;4.33;;;3.93;;
12814;SDS011;6472;52.328;13.070;2023-07-13T04:08:48;5.47;;;4.20;;
12814;SDS011;6472;52.328;13.070;2023-07-13T04:11:17;6.60;;;4.37;;
12814;SDS011;6472;52.328;13.070;2023-07-13T04:13:46;4.17;;;3.50;;
12814;SDS011;6472;52.328;13.070;2023-07-13T04:16:16;4.27;;;3.70;;
12814;SDS011;6472;52.328;13.070;2023-07-13T04:18:45;6.03;;;3.93;;
12814;SDS011;6472;52.328;13.070;2023-07-13T04:21:15;8.07;;;4.63;;
12814;SDS011;6472;52.328;13.070;2023-07-13T04:23:43;7.23;;;3.93;;
12814;SDS011;6472;52.328;13.070;2023-07-13T04:26:11;5.13;;;4.33;;
12814;SDS011;6472;52.328;13.070;2023-07-13T04:28:39;5.17;;;4.13;;
12814;SDS011;6472;52.328;13.070;2023-07-13T04:31:07;6.70;;;3.93;;
12814;SDS011;6472;52.328;13.070;2023-07-13T04:33:37;6.13;;;4.20;;
12814;SDS011;6472;52.328;13.070;2023-07-13T04:36:05;5.47;;;3.58;;
12814;SDS011;6472;52.328;13.070;2023-07-13T04:38:36;4.33;;;3.87;;
12814;SDS011;6472;52.328;13.070;2023-07-13T04:41:06;6.03;;;4.40;;
12814;SDS011;6472;52.328;13.070;2023-07-13T04:43:35;5.07;;;4.10;;
12814;SDS011;6472;52.328;13.070;2023-07-13T04:46:03;4.75;;;4.00;;
12814;SDS011;6472;52.328;13.070;2023-07-13T04:48:33;4.13;;;3.72;;
12814;SDS011;6472;52.328;13.070;2023-07-13T04:51:02;4.78;;;4.10;;
12814;SDS011;6472;52.328;13.070;2023-07-13T04:53:31;5.78;;;3.67;;
12814;SDS011;6472;52.328;13.070;2023-07-13T04:56:01;4.78;;;3.92;;
12814;SDS011;6472;52.328;13.070;2023-07-13T04:58:29;4.20;;;3.80;;
12814;SDS011;6472;52.328;13.070;2023-07-13T05:01:01;4.43;;;4.03;;
12814;SDS011;6472;52.328;13.070;2023-07-13T05:03:30;4.90;;;3.63;;
12814;SDS011;6472;52.328;13.070;2023-07-13T05:05:59;4.47;;;3.63;;
12814;SDS011;6472;52.328;13.070;2023-07-13T05:08:30;6.35;;;4.03;;
12814;SDS011;6472;52.328;13.070;2023-07-13T05:10:59;3.92;;;3.50;;
12814;SDS011;6472;52.328;13.070;2023-07-13T05:13:27;3.75;;;3.45;;
12814;SDS011;6472;52.328;13.070;2023-07-13T05:15:56;4.38;;;3.58;;
12814;SDS011;6472;52.328;13.070;2023-07-13T05:18:26;3.22;;;2.97;;
12814;SDS011;6472;52.328;13.070;2023-07-13T05:20:56;4.70;;;3.42;;
12814;SDS011;6472;52.328;13.070;2023-07-13T05:23:25;5.32;;;3.75;;
12814;SDS011;6472;52.328;13.070;2023-07-13T05:25:57;5.03;;;3.25;;
12814;SDS011;6472;52.328;13.070;2023-07-13T05:28:29;3.40;;;3.00;;
12814;SDS011;6472;52.328;13.070;2023-07-13T05:31:08;3.42;;;3.10;;
12814;SDS011;6472;52.328;13.070;2023-07-13T05:33:46;6.22;;;2.80;;
12814;SDS011;6472;52.328;13.070;2023-07-13T05:36:14;4.57;;;2.88;;
12814;SDS011;6472;52.328;13.070;2023-07-13T05:38:42;3.08;;;2.67;;
12814;SDS011;6472;52.328;13.070;2023-07-13T05:41:11;5.50;;;3.03;;
12814;SDS011;6472;52.328;13.070;2023-07-13T05:43:39;4.15;;;2.58;;
12814;SDS011;6472;52.328;13.070;2023-07-13T05:46:07;3.78;;;2.55;;
12814;SDS011;6472;52.328;13.070;2023-07-13T05:48:35;2.53;;;2.33;;
12814;SDS011;6472;52.328;13.070;2023-07-13T05:51:03;2.65;;;2.22;;
12814;SDS011;6472;52.328;13.070;2023-07-13T05:53:31;3.10;;;2.30;;
12814;SDS011;6472;52.328;13.070;2023-07-13T05:55:58;3.20;;;2.70;;
12814;SDS011;6472;52.328;13.070;2023-07-13T05:58:30;2.88;;;2.35;;
12814;SDS011;6472;52.328;13.070;2023-07-13T06:00:59;3.15;;;2.08;;
12814;SDS011;6472;52.328;13.070;2023-07-13T06:03:28;2.45;;;2.25;;
12814;SDS011;6472;52.328;13.070;2023-07-13T06:05:56;2.53;;;1.90;;
12814;SDS011;6472;52.328;13.070;2023-07-13T06:08:26;4.07;;;2.25;;
12814;SDS011;6472;52.328;13.070;2023-07-13T06:10:58;2.95;;;1.55;;
12814;SDS011;6472;52.328;13.070;2023-07-13T06:13:30;2.17;;;1.98;;
12814;SDS011;6472;52.328;13.070;2023-07-13T06:15:59;3.80;;;2.60;;
12814;SDS011;6472;52.328;13.070;2023-07-13T06:18:30;3.05;;;2.00;;
12814;SDS011;6472;52.328;13.070;2023-07-13T06:20:59;6.15;;;5.85;;
12814;SDS011;6472;52.328;13.070;2023-07-13T06:23:28;2.35;;;2.10;;
12814;SDS011;6472;52.328;13.070;2023-07-13T06:25:56;2.20;;;1.80;;
12814;SDS011;6472;52.328;13.070;2023-07-13T06:28:24;2.10;;;1.90;;
12814;SDS011;6472;52.328;13.070;2023-07-13T06:30:53;2.65;;;2.13;;
12814;SDS011;6472;52.328;13.070;2023-07-13T06:33:21;3.10;;;2.08;;
12814;SDS011;6472;52.328;13.070;2023-07-13T06:35:49;3.42;;;2.42;;
12814;SDS011;6472;52.328;13.070;2023-07-13T06:38:17;3.33;;;2.22;;
12814;SDS011;6472;52.328;13.070;2023-07-13T06:40:46;2.03;;;1.83;;
12814;SDS011;6472;52.328;13.070;2023-07-13T06:43:14;3.60;;;3.30;;
12814;SDS011;6472;52.328;13.070;2023-07-13T06:45:43;1.60;;;1.55;;
12814;SDS011;6472;52.328;13.070;2023-07-13T06:48:15;1.90;;;1.70;;
12814;SDS011;6472;52.328;13.070;2023-07-13T06:50:43;3.25;;;2.25;;
12814;SDS011;6472;52.328;13.070;2023-07-13T06:53:11;2.42;;;1.83;;
12814;SDS011;6472;52.328;13.070;2023-07-13T06:55:40;2.42;;;1.95;;
12814;SDS011;6472;52.328;13.070;2023-07-13T06:58:10;4.20;;;1.88;;
12814;SDS011;6472;52.328;13.070;2023-07-13T07:00:39;2.17;;;1.98;;
12814;SDS011;6472;52.328;13.070;2023-07-13T07:03:07;3.38;;;1.88;;
12814;SDS011;6472;52.328;13.070;2023-07-13T07:05:37;2.90;;;2.00;;
12814;SDS011;6472;52.328;13.070;2023-07-13T07:08:05;5.28;;;2.05;;
12814;SDS011;6472;52.328;13.070;2023-07-13T07:10:33;1.92;;;1.70;;
12814;SDS011;6472;52.328;13.070;2023-07-13T07:13:02;2.30;;;2.10;;
12814;SDS011;6472;52.328;13.070;2023-07-13T07:15:30;2.22;;;1.85;;
12814;SDS011;6472;52.328;13.070;2023-07-13T07:17:58;1.65;;;1.55;;
12814;SDS011;6472;52.328;13.070;2023-07-13T07:20:26;1.50;;;1.40;;
12814;SDS011;6472;52.328;13.070;2023-07-13T07:22:55;1.77;;;1.67;;
12814;SDS011;6472;52.328;13.070;2023-07-13T07:25:24;1.60;;;1.45;;
12814;SDS011;6472;52.328;13.070;2023-07-13T07:27:52;3.17;;;1.88;;
12814;SDS011;6472;52.328;13.070;2023-07-13T07:30:22;3.15;;;2.33;;
12814;SDS011;6472;52.328;13.070;2023-07-13T07:32:53;1.52;;;1.40;;
12814;SDS011;6472;52.328;13.070;2023-07-13T07:35:23;2.75;;;1.75;;
12814;SDS011;6472;52.328;13.070;2023-07-13T07:37:51;4.05;;;1.52;;
12814;SDS011;6472;52.328;13.070;2023-07-13T07:40:20;2.42;;;1.90;;
12814;SDS011;6472;52.328;13.070;2023-07-13T07:42:51;2.47;;;1.50;;
12814;SDS011;6472;52.328;13.070;2023-07-13T07:45:19;1.65;;;1.35;;
12814;SDS011;6472;52.328;13.070;2023-07-13T07:47:48;1.58;;;1.48;;
12814;SDS011;6472;52.328;13.070;2023-07-13T07:50:17;5.13;;;1.63;;
12814;SDS011;6472;52.328;13.070;2023-07-13T07:52:46;2.03;;;1.80;;
12814;SDS011;6472;52.328;13.070;2023-07-13T07:55:14;1.77;;;1.20;;
12814;SDS011;6472;52.328;13.070;2023-07-13T07:57:46;1.73;;;1.63;;
12814;SDS011;6472;52.328;13.070;2023-07-13T08:00:17;1.70;;;1.52;;
12814;SDS011;6472;52.328;13.070;2023-07-13T08:02:49;2.63;;;1.60;;
12814;SDS011;6472;52.328;13.070;2023-07-13T08:05:19;1.40;;;1.20;;
12814;SDS011;6472;52.328;13.070;2023-07-13T08:08:05;2.88;;;1.70;;
12814;SDS011;6472;52.328;13.070;2023-07-13T08:10:34;1.60;;;1.50;;
12814;SDS011;6472;52.328;13.070;2023-07-13T08:13:04;1.83;;;1.67;;
12814;SDS011;6472;52.328;13.070;2023-07-13T08:15:37;2.00;;;1.40;;
12814;SDS011;6472;52.328;13.070;2023-07-13T08:18:06;4.18;;;1.73;;
12814;SDS011;6472;52.328;13.070;2023-07-13T08:20:36;5.88;;;1.70;;
12814;SDS011;6472;52.328;13.070;2023-07-13T08:23:05;1.75;;;1.63;;
12814;SDS011;6472;52.328;13.070;2023-07-13T08:25:34;7.72;;;2.05;;
12814;SDS011;6472;52.328;13.070;2023-07-13T08:28:02;1.45;;;1.40;;
12814;SDS011;6472;52.328;13.070;2023-07-13T08:30:32;1.60;;;1.38;;
12814;SDS011;6472;52.328;13.070;2023-07-13T08:33:00;3.03;;;1.27;;
12814;SDS011;6472;52.328;13.070;2023-07-13T08:35:28;3.15;;;1.52;;
12814;SDS011;6472;52.328;13.070;2023-07-13T08:37:56;2.53;;;1.35;;
12814;SDS011;6472;52.328;13.070;2023-07-13T08:40:25;2.10;;;1.55;;
12814;SDS011;6472;52.328;13.070;2023-07-13T08:42:54;2.25;;;1.10;;
12814;SDS011;6472;52.328;13.070;2023-07-13T08:45:27;3.63;;;1.55;;
12814;SDS011;6472;52.328;13.070;2023-07-13T08:48:02;2.17;;;1.27;;
12814;SDS011;6472;52.328;13.070;2023-07-13T08:50:32;1.55;;;1.45;;
12814;SDS011;6472;52.328;13.070;2023-07-13T08:53:27;1.48;;;1.33;;
12814;SDS011;6472;52.328;13.070;2023-07-13T08:56:02;1.75;;;1.40;;
12814;SDS011;6472;52.328;13.070;2023-07-13T08:58:32;4.10;;;1.90;;
12814;SDS011;6472;52.328;13.070;2023-07-13T09:01:04;2.55;;;1.70;;
12814;SDS011;6472;52.328;13.070;2023-07-13T09:03:44;2.35;;;1.48;;
12814;SDS011;6472;52.328;13.070;2023-07-13T09:06:20;3.78;;;2.25;;
12814;SDS011;6472;52.328;13.070;2023-07-13T09:08:55;1.45;;;1.35;;
12814;SDS011;6472;52.328;13.070;2023-07-13T09:11:37;1.75;;;1.42;;
12814;SDS011;6472;52.328;13.070;2023-07-13T09:14:33;3.05;;;1.63;;
12814;SDS011;6472;52.328;13.070;2023-07-13T09:17:10;7.43;;;2.50;;
12814;SDS011;6472;52.328;13.070;2023-07-13T09:19:42;2.17;;;1.98;;
12814;SDS011;6472;52.328;13.070;2023-07-13T09:22:13;2.10;;;1.90;;
12814;SDS011;6472;52.328;13.070;2023-07-13T09:24:49;3.67;;;2.60;;
12814;SDS011;6472;52.328;13.070;2023-07-13T09:27:22;4.80;;;2.58;;
12814;SDS011;6472;52.328;13.070;2023-07-13T09:29:57;2.53;;;2.28;;
12814;SDS011;6472;52.328;13.070;2023-07-13T09:32:33;3.72;;;2.65;;
12814;SDS011;6472;52.328;13.070;2023-07-13T09:35:01;2.35;;;2.15;;
12814;SDS011;6472;52.328;13.070;2023-07-13T09:37:38;3.45;;;2.53;;
12814;SDS011;6472;52.328;13.070;2023-07-13T09:40:08;2.38;;;1.83;;
12814;SDS011;6472;52.328;13.070;2023-07-13T09:42:40;2.10;;;1.90;;
12814;SDS011;6472;52.328;13.070;2023-07-13T09:45:12;3.17;;;2.28;;
12814;SDS011;6472;52.328;13.070;2023-07-13T09:47:59;2.75;;;2.20;;
12814;SDS011;6472;52.328;13.070;2023-07-13T09:50:31;3.17;;;2.00;;
12814;SDS011;6472;52.328;13.070;2023-07-13T09:53:00;2.92;;;2.03;;
12814;SDS011;6472;52.328;13.070;2023-07-13T09:55:29;3.47;;;2.25;;
12814;SDS011;6472;52.328;13.070;2023-07-13T09:58:04;4.25;;;2.30;;
12814;SDS011;6472;52.328;13.070;2023-07-13T10:00:32;3.75;;;2.25;;
12814;SDS011;6472;52.328;13.070;2023-07-13T10:03:03;4.63;;;2.33;;
12814;SDS011;6472;52.328;13.070;2023-07-13T10:05:39;3.70;;;2.22;;
12814;SDS011;6472;52.328;13.070;2023-07-13T10:08:15;2.65;;;2.45;;
12814;SDS011;6472;52.328;13.070;2023-07-13T10:10:51;2.25;;;2.13;;
12814;SDS011;6472;52.328;13.070;2023-07-13T10:13:26;3.45;;;2.33;;
12814;SDS011;6472;52.328;13.070;2023-07-13T10:15:58;4.13;;;2.53;;
12814;SDS011;6472;52.328;13.070;2023-07-13T10:18:38;3.22;;;2.30;;
12814;SDS011;6472;52.328;13.070;2023-07-13T10:21:14;2.33;;;2.22;;
12814;SDS011;6472;52.328;13.070;2023-07-13T10:23:49;2.88;;;2.42;;
12814;SDS011;6472;52.328;13.070;2023-07-13T10:26:21;3.10;;;2.38;;
12814;SDS011;6472;52.328;13.070;2023-07-13T10:28:53;2.78;;;2.38;;
12814;SDS011;6472;52.328;13.070;2023-07-13T10:31:23;2.80;;;2.33;;
12814;SDS011;6472;52.328;13.070;2023-07-13T10:33:53;2.72;;;2.53;;
12814;SDS011;6472;52.328;13.070;2023-07-13T10:36:26;2.50;;;2.30;;
12814;SDS011;6472;52.328;13.070;2023-07-13T10:38:59;4.13;;;2.30;;
12814;SDS011;6472;52.328;13.070;2023-07-13T10:41:30;5.05;;;2.58;;
12814;SDS011;6472;52.328;13.070;2023-07-13T10:44:03;2.35;;;2.15;;
12814;SDS011;6472;52.328;13.070;2023-07-13T10:46:33;3.50;;;2.67;;
12814;SDS011;6472;52.328;13.070;2023-07-13T10:49:02;4.20;;;2.50;;
12814;SDS011;6472;52.328;13.070;2023-07-13T10:51:34;3.35;;;2.30;;
12814;SDS011;6472;52.328;13.070;2023-07-13T10:54:17;3.17;;;2.03;;
12814;SDS011;6472;52.328;13.070;2023-07-13T10:56:52;3.60;;;2.33;;
12814;SDS011;6472;52.328;13.070;2023-07-13T10:59:35;3.05;;;2.13;;
12814;SDS011;6472;52.328;13.070;2023-07-13T11:02:10;2.22;;;2.03;;
12814;SDS011;6472;52.328;13.070;2023-07-13T11:04:44;1.77;;;1.67;;
12814;SDS011;6472;52.328;13.070;2023-07-13T11:07:19;2.60;;;2.20;;
12814;SDS011;6472;52.328;13.070;2023-07-13T11:09:51;2.28;;;2.08;;
12814;SDS011;6472;52.328;13.070;2023-07-13T11:12:29;3.05;;;2.13;;
12814;SDS011;6472;52.328;13.070;2023-07-13T11:15:32;2.97;;;1.90;;
12814;SDS011;6472;52.328;13.070;2023-07-13T11:18:21;3.03;;;2.00;;
12814;SDS011;6472;52.328;13.070;2023-07-13T11:20:51;3.15;;;2.25;;
12814;SDS011;6472;52.328;13.070;2023-07-13T11:23:28;2.25;;;2.15;;
12814;SDS011;6472;52.328;13.070;2023-07-13T11:25:59;2.63;;;2.00;;
12814;SDS011;6472;52.328;13.070;2023-07-13T11:28:31;2.42;;;2.20;;
12814;SDS011;6472;52.328;13.070;2023-07-13T11:31:14;2.50;;;2.13;;
12814;SDS011;6472;52.328;13.070;2023-07-13T11:33:51;4.43;;;1.75;;
12814;SDS011;6472;52.328;13.070;2023-07-13T11:36:21;4.90;;;1.80;;
12814;SDS011;6472;52.328;13.070;2023-07-13T11:38:55;4.68;;;1.90;;
12814;SDS011;6472;52.328;13.070;2023-07-13T11:41:29;2.13;;;1.75;;
12814;SDS011;6472;52.328;13.070;2023-07-13T11:44:10;1.55;;;1.45;;
12814;SDS011;6472;52.328;13.070;2023-07-13T11:46:44;2.25;;;1.55;;
12814;SDS011;6472;52.328;13.070;2023-07-13T11:49:18;3.30;;;1.63;;
12814;SDS011;6472;52.328;13.070;2023-07-13T11:51:50;1.92;;;1.48;;
12814;SDS011;6472;52.328;13.070;2023-07-13T11:54:24;2.65;;;1.70;;
12814;SDS011;6472;52.328;13.070;2023-07-13T11:56:56;1.88;;;1.75;;
12814;SDS011;6472;52.328;13.070;2023-07-13T11:59:30;2.25;;;1.90;;
12814;SDS011;6472;52.328;13.070;2023-07-13T12:01:59;4.63;;;2.13;;
12814;SDS011;6472;52.328;13.070;2023-07-13T12:04:31;2.10;;;1.70;;
12814;SDS011;6472;52.328;13.070;2023-07-13T12:07:03;2.63;;;1.60;;
12814;SDS011;6472;52.328;13.070;2023-07-13T12:09:33;1.23;;;1.13;;
12814;SDS011;6472;52.328;13.070;2023-07-13T12:12:03;2.92;;;1.23;;
12814;SDS011;6472;52.328;13.070;2023-07-13T12:14:38;2.83;;;1.55;;
12814;SDS011;6472;52.328;13.070;2023-07-13T12:17:09;1.50;;;1.40;;
12814;SDS011;6472;52.328;13.070;2023-07-13T12:19:47;3.70;;;1.60;;
12814;SDS011;6472;52.328;13.070;2023-07-13T12:22:16;2.38;;;1.38;;
12814;SDS011;6472;52.328;13.070;2023-07-13T12:24:46;2.95;;;1.58;;
12814;SDS011;6472;52.328;13.070;2023-07-13T12:27:18;2.50;;;1.42;;
12814;SDS011;6472;52.328;13.070;2023-07-13T12:29:51;2.25;;;1.20;;
12814;SDS011;6472;52.328;13.070;2023-07-13T12:32:21;2.30;;;1.60;;
12814;SDS011;6472;52.328;13.070;2023-07-13T12:34:52;2.63;;;1.40;;
12814;SDS011;6472;52.328;13.070;2023-07-13T12:37:22;3.20;;;1.35;;
12814;SDS011;6472;52.328;13.070;2023-07-13T12:39:51;2.08;;;1.45;;
12814;SDS011;6472;52.328;13.070;2023-07-13T12:42:20;4.32;;;1.48;;
12814;SDS011;6472;52.328;13.070;2023-07-13T12:44:56;1.70;;;1.25;;
12814;SDS011;6472;52.328;13.070;2023-07-13T12:47:27;1.45;;;1.17;;
12814;SDS011;6472;52.328;13.070;2023-07-13T12:49:57;1.67;;;1.55;;
12814;SDS011;6472;52.328;13.070;2023-07-13T12:52:28;2.47;;;1.48;;
12814;SDS011;6472;52.328;13.070;2023-07-13T12:55:03;1.30;;;1.20;;
12814;SDS011;6472;52.328;13.070;2023-07-13T12:57:39;2.30;;;1.30;;
12814;SDS011;6472;52.328;13.070;2023-07-13T13:00:20;2.25;;;1.35;;
12814;SDS011;6472;52.328;13.070;2023-07-13T13:02:52;1.42;;;1.33;;
12814;SDS011;6472;52.328;13.070;2023-07-13T13:05:41;1.17;;;1.08;;
12814;SDS011;6472;52.328;13.070;2023-07-13T13:08:10;1.23;;;1.10;;
12814;SDS011;6472;52.328;13.070;2023-07-13T13:10:39;1.40;;;1.20;;
12814;SDS011;6472;52.328;13.070;2023-07-13T13:13:07;1.45;;;0.93;;
12814;SDS011;6472;52.328;13.070;2023-07-13T13:15:37;3.40;;;1.10;;
12814;SDS011;6472;52.328;13.070;2023-07-13T13:18:08;0.90;;;0.90;;
12814;SDS011;6472;52.328;13.070;2023-07-13T13:20:44;5.18;;;1.20;;
12814;SDS011;6472;52.328;13.070;2023-07-13T13:23:13;1.95;;;1.10;;
12814;SDS011;6472;52.328;13.070;2023-07-13T13:25:44;1.70;;;1.05;;
12814;SDS011;6472;52.328;13.070;2023-07-13T13:28:14;3.95;;;1.25;;
12814;SDS011;6472;52.328;13.070;2023-07-13T13:30:46;3.22;;;1.00;;
12814;SDS011;6472;52.328;13.070;2023-07-13T13:33:16;0.80;;;0.80;;
12814;SDS011;6472;52.328;13.070;2023-07-13T13:35:45;1.63;;;1.45;;
12814;SDS011;6472;52.328;13.070;2023-07-13T13:38:14;1.80;;;1.23;;
12814;SDS011;6472;52.328;13.070;2023-07-13T13:40:44;1.23;;;1.10;;
12814;SDS011;6472;52.328;13.070;2023-07-13T13:43:16;3.55;;;1.30;;
12814;SDS011;6472;52.328;13.070;2023-07-13T13:45:46;2.15;;;1.30;;
12814;SDS011;6472;52.328;13.070;2023-07-13T13:48:15;2.20;;;1.10;;
12814;SDS011;6472;52.328;13.070;2023-07-13T13:50:45;1.45;;;1.00;;
12814;SDS011;6472;52.328;13.070;2023-07-13T13:53:14;0.98;;;0.98;;
12814;SDS011;6472;52.328;13.070;2023-07-13T13:55:42;1.77;;;1.17;;
12814;SDS011;6472;52.328;13.070;2023-07-13T13:58:10;1.95;;;1.30;;
12814;SDS011;6472;52.328;13.070;2023-07-13T14:00:39;2.22;;;1.30;;
12814;SDS011;6472;52.328;13.070;2023-07-13T14:03:10;1.38;;;1.02;;
12814;SDS011;6472;52.328;13.070;2023-07-13T14:05:43;1.48;;;0.90;;
12814;SDS011;6472;52.328;13.070;2023-07-13T14:08:13;1.38;;;1.27;;
12814;SDS011;6472;52.328;13.070;2023-07-13T14:10:42;3.17;;;1.25;;
12814;SDS011;6472;52.328;13.070;2023-07-13T14:13:15;2.85;;;1.15;;
12814;SDS011;6472;52.328;13.070;2023-07-13T14:15:45;2.63;;;0.90;;
12814;SDS011;6472;52.328;13.070;2023-07-13T14:18:15;1.17;;;1.08;;
12814;SDS011;6472;52.328;13.070;2023-07-13T14:20:44;2.28;;;0.93;;
12814;SDS011;6472;52.328;13.070;2023-07-13T14:23:13;0.70;;;0.70;;
12814;SDS011;6472;52.328;13.070;2023-07-13T14:25:44;0.98;;;0.80;;
12814;SDS011;6472;52.328;13.070;2023-07-13T14:28:24;1.27;;;0.60;;
12814;SDS011;6472;52.328;13.070;2023-07-13T14:30:53;1.77;;;0.77;;
12814;SDS011;6472;52.328;13.070;2023-07-13T14:33:23;0.77;;;0.60;;
12814;SDS011;6472;52.328;13.070;2023-07-13T14:35:51;3.78;;;0.73;;
12814;SDS011;6472;52.328;13.070;2023-07-13T14:38:19;0.95;;;0.75;;
12814;SDS011;6472;52.328;13.070;2023-07-13T14:40:48;1.55;;;0.65;;
12814;SDS011;6472;52.328;13.070;2023-07-13T14:43:16;2.65;;;0.60;;
12814;SDS011;6472;52.328;13.070;2023-07-13T14:45:46;0.70;;;0.70;;
12814;SDS011;6472;52.328;13.070;2023-07-13T14:48:17;0.73;;;0.68;;
12814;SDS011;6472;52.328;13.070;2023-07-13T14:50:50;1.17;;;0.80;;
12814;SDS011;6472;52.328;13.070;2023-07-13T14:53:27;0.73;;;0.73;;
12814;SDS011;6472;52.328;13.070;2023-07-13T14:55:55;1.48;;;0.60;;
12814;SDS011;6472;52.328;13.070;2023-07-13T14:58:23;1.08;;;0.90;;
12814;SDS011;6472;52.328;13.070;2023-07-13T15:00:52;0.73;;;0.73;;
12814;SDS011;6472;52.328;13.070;2023-07-13T15:03:24;1.33;;;0.75;;
12814;SDS011;6472;52.328;13.070;2023-07-13T15:05:54;1.00;;;0.70;;
12814;SDS011;6472;52.328;13.070;2023-07-13T15:08:22;0.77;;;0.77;;